Main page
METAR-TAF:

METAR-TAF

Airports :

Lihue Airport

Lihue, Hawaii, United States

latitude: 21-59-02N, longitude: 159-20-28W, elevation: 45 m

Current weather observation

The report was made 45 minutes ago, at 16:53 UTC
Wind 14 kt from the East/Northeast
Temperature 24°C
Humidity 89%
Pressure 1020 hPa
Visibility: 16.1 km
Few clouds at a height of 1800 ft
Broken clouds at a height of 3400 ft
Overcast at a height of 5000 ft

METAR: PHLI 211653Z 07014KT 10SM FEW018 BKN034 OVC050 24/22 A3011 RMK AO2 SLP192 T02440217

Time: 07:38 (17:38 UTC)

Forecast

The report was made 6 hours and 18 minutes ago, at 11:20 UTC
Forecast valid from 21 at 12 UTC to 22 at 12 UTC
Wind 16 kt from the East/Northeast with gusts up to 25 kt
Visibility: 10 km
Scattered clouds at a height of 2500 ft
Broken clouds at a height of 4500 ft
showers in vicinity,

TAF: PHLI 211120Z 2112/2212 06016G25KT P6SM VCSH SCT025 BKN045

Weather observations and forecasts of more than 4000 airports (METAR and TAF reports).

The available stations are represented by yellow and red dots on the map.

Hover mouse over dot to see the name of the station.

Then click to see weather observations and forecasts.

To change the map : click on the green buttons with a black cross to zoom in, on the green button with a dash to zoom out, or on the green arrows for adjacent maps.


METAR-TAF: